Time;durP1;ratioP1;P1;durP2;ratioP2;P2;SDS_P1;SDS_P2;PMS_P1;PMS_P2;Temp;Humidity;BMP_temperature;BMP_pressure;BME280_temperature;BME280_humidity;BME280_pressure;Samples;Min_cycle;Max_cycle;Signal;HPM_P1;HPM_P2
2022/07/25 00:01:55;;;;;;;10.98;7.47;;;23.50;86.50;;;;;;4987182;28;20493;-75
2022/07/25 00:04:21;;;;;;;10.32;7.25;;;23.50;86.20;;;;;;4983676;28;20058;-75
2022/07/25 00:06:49;;;;;;;8.50;7.50;;;23.50;86.40;;;;;;4991629;28;20435;-73
2022/07/25 00:09:18;;;;;;;10.13;7.68;;;23.50;86.20;;;;;;4989833;28;20124;-75
2022/07/25 00:11:44;;;;;;;10.20;7.97;;;23.40;86.40;;;;;;4994504;28;20065;-74
2022/07/25 00:14:15;;;;;;;11.90;7.93;;;23.40;86.80;;;;;;4989905;28;20443;-74
2022/07/25 00:16:44;;;;;;;11.63;8.50;;;23.30;87.70;;;;;;4988070;28;20038;-74
2022/07/25 00:19:12;;;;;;;9.38;7.78;;;23.30;87.20;;;;;;4989686;28;20073;-73
2022/07/25 00:21:38;;;;;;;10.95;8.00;;;23.20;87.30;;;;;;4986614;28;20029;-72
2022/07/25 00:24:04;;;;;;;9.90;8.10;;;23.20;87.70;;;;;;5004464;28;20109;-74
2022/07/25 00:26:29;;;;;;;9.50;8.10;;;23.10;87.80;;;;;;4988382;28;20101;-73
2022/07/25 00:28:55;;;;;;;10.00;7.88;;;23.10;88.10;;;;;;4988312;28;20041;-74
2022/07/25 00:31:33;;;;;;;11.23;7.47;;;23.10;88.10;;;;;;4985267;28;20034;-74
2022/07/25 00:34:02;;;;;;;9.50;7.80;;;23.00;88.20;;;;;;4991749;28;20057;-74
2022/07/25 00:36:33;;;;;;;9.02;7.40;;;23.00;88.30;;;;;;4988517;28;20031;-73
2022/07/25 00:38:59;;;;;;;10.90;7.85;;;23.00;88.50;;;;;;4988005;28;20031;-74
2022/07/25 00:41:25;;;;;;;8.57;7.68;;;22.90;88.60;;;;;;4987666;28;20023;-75
2022/07/25 00:43:50;;;;;;;9.57;8.00;;;23.00;88.90;;;;;;4992798;28;20033;-74
2022/07/25 00:46:16;;;;;;;10.80;7.90;;;23.00;88.80;;;;;;4985755;28;20026;-74
2022/07/25 00:48:43;;;;;;;11.48;7.35;;;23.00;89.00;;;;;;4985264;28;20392;-74
2022/07/25 00:51:09;;;;;;;10.43;7.90;;;22.90;89.30;;;;;;4986620;28;20113;-74
2022/07/25 00:53:37;;;;;;;9.95;8.85;;;22.90;89.60;;;;;;4988903;28;20038;-73
2022/07/25 00:56:04;;;;;;;12.38;8.85;;;22.90;90.10;;;;;;4988599;28;20365;-73
2022/07/25 00:58:30;;;;;;;12.00;9.50;;;22.80;90.30;;;;;;4987244;28;20027;-74
2022/07/25 01:00:59;;;;;;;12.32;9.90;;;22.80;90.40;;;;;;4982570;28;20019;-74
2022/07/25 01:03:25;;;;;;;11.60;9.40;;;22.80;90.50;;;;;;4987657;28;20037;-74
2022/07/25 01:05:56;;;;;;;12.07;8.63;;;22.80;90.60;;;;;;4990006;28;20458;-74
2022/07/25 01:08:22;;;;;;;9.75;8.55;;;22.80;90.40;;;;;;4988836;28;20105;-72
2022/07/25 01:10:48;;;;;;;11.30;8.90;;;22.80;90.50;;;;;;4992731;28;20101;-74
2022/07/25 01:13:14;;;;;;;11.57;9.02;;;22.80;90.60;;;;;;4991521;28;20027;-75
2022/07/25 01:15:43;;;;;;;12.07;9.35;;;22.70;90.80;;;;;;4988477;28;20065;-75
2022/07/25 01:18:11;;;;;;;14.38;9.52;;;22.70;90.90;;;;;;4991694;28;20403;-75
2022/07/25 01:20:40;;;;;;;11.07;9.15;;;22.70;91.20;;;;;;4988820;28;20041;-73
2022/07/25 01:23:09;;;;;;;11.98;9.35;;;22.60;91.20;;;;;;4986793;28;20041;-74
2022/07/25 01:25:44;;;;;;;9.63;8.50;;;22.60;91.50;;;;;;4979000;28;20081;-73
2022/07/25 01:28:13;;;;;;;13.40;10.35;;;22.60;91.80;;;;;;4988675;28;20057;-72
2022/07/25 01:30:41;;;;;;;11.15;9.52;;;22.50;91.80;;;;;;4990414;28;20018;-75
2022/07/25 01:33:06;;;;;;;13.40;9.52;;;22.50;92.10;;;;;;4991914;28;20368;-75
2022/07/25 01:35:38;;;;;;;10.55;8.75;;;22.50;92.10;;;;;;4992747;28;20080;-73
2022/07/25 01:38:06;;;;;;;11.55;9.85;;;22.40;92.20;;;;;;4984181;28;20038;-74
2022/07/25 01:40:39;;;;;;;13.02;10.10;;;22.30;92.40;;;;;;4988672;28;20451;-73
2022/07/25 01:43:05;;;;;;;13.45;10.00;;;22.30;92.60;;;;;;4985562;28;20077;-73
2022/07/25 01:45:40;;;;;;;12.13;9.55;;;22.20;92.70;;;;;;4989107;28;20034;-74
2022/07/25 01:48:06;;;;;;;18.38;9.63;;;22.20;92.90;;;;;;4992612;28;20018;-74
2022/07/25 01:50:35;;;;;;;12.77;10.40;;;22.20;93.00;;;;;;4993287;28;20038;-74
2022/07/25 01:53:03;;;;;;;11.52;9.48;;;22.20;93.10;;;;;;4997793;28;20210;-74
2022/07/25 01:55:38;;;;;;;12.35;9.35;;;22.20;93.20;;;;;;4990388;28;20415;-74
2022/07/25 01:58:03;;;;;;;11.80;9.45;;;22.10;93.40;;;;;;4986480;28;20133;-72
2022/07/25 02:00:29;;;;;;;14.07;9.68;;;22.10;93.50;;;;;;4990921;28;20120;-74
2022/07/25 02:05:42;;;;;;;12.05;9.10;;;22.00;93.60;;;;;;4988030;28;20033;-74
2022/07/25 02:08:10;;;;;;;12.20;9.57;;;22.00;93.80;;;;;;4982099;28;20018;-73
2022/07/25 02:10:36;;;;;;;12.93;9.13;;;22.00;93.90;;;;;;4987445;28;20460;-73
2022/07/25 02:13:11;;;;;;;11.20;9.25;;;21.90;93.90;;;;;;4990205;28;20073;-74
2022/07/25 02:15:43;;;;;;;11.20;9.32;;;21.90;94.10;;;;;;4987148;28;20037;-74
2022/07/25 02:18:09;;;;;;;10.60;8.80;;;21.80;94.20;;;;;;4984879;28;20622;-71
2022/07/25 02:20:38;;;;;;;9.73;8.20;;;21.80;94.20;;;;;;4988349;28;20036;-74
2022/07/25 02:23:04;;;;;;;13.90;10.10;;;21.80;94.50;;;;;;4997180;23;20047;-77
2022/07/25 02:25:39;;;;;;;11.77;9.32;;;21.70;94.50;;;;;;4949940;28;20398;-77
2022/07/25 02:28:05;;;;;;;11.40;10.07;;;21.70;94.50;;;;;;4944961;29;20049;-77
2022/07/25 02:30:30;;;;;;;11.60;9.27;;;21.70;94.70;;;;;;4966552;28;20369;-77
2022/07/25 02:33:05;;;;;;;13.60;10.18;;;21.70;94.80;;;;;;4945845;28;20035;-77
2022/07/25 02:35:31;;;;;;;11.65;9.32;;;21.60;95.00;;;;;;4933896;29;20054;-77
2022/07/25 02:37:56;;;;;;;9.90;8.50;;;21.70;95.00;;;;;;4937176;29;20028;-77
2022/07/25 02:40:22;;;;;;;11.07;9.25;;;21.60;95.00;;;;;;4932195;29;20108;-77
2022/07/25 02:42:48;;;;;;;11.73;9.55;;;21.60;95.30;;;;;;4931575;29;20039;-77
2022/07/25 02:45:16;;;;;;;11.00;9.77;;;21.50;95.30;;;;;;4933998;29;20024;-78
2022/07/25 02:47:42;;;;;;;13.82;8.82;;;21.60;95.60;;;;;;4929495;29;20119;-77
2022/07/25 02:50:08;;;;;;;11.75;9.25;;;21.50;95.40;;;;;;4932799;29;20134;-77
2022/07/25 02:52:34;;;;;;;12.95;10.23;;;21.50;95.40;;;;;;4930647;28;20039;-77
2022/07/25 02:55:12;;;;;;;12.07;9.55;;;21.40;95.60;;;;;;4931162;29;20441;-76
2022/07/25 02:57:38;;;;;;;12.88;9.55;;;21.40;95.80;;;;;;4932153;29;20035;-76
2022/07/25 03:00:10;;;;;;;11.10;9.40;;;21.40;95.90;;;;;;4938646;28;20059;-76
2022/07/25 03:02:36;;;;;;;12.07;9.95;;;21.40;95.80;;;;;;4939020;28;20087;-76
2022/07/25 03:05:08;;;;;;;10.48;8.85;;;21.40;95.90;;;;;;4934627;28;20429;-76
2022/07/25 03:07:34;;;;;;;12.15;9.63;;;21.30;96.00;;;;;;4929627;29;20142;-76
2022/07/25 03:09:59;;;;;;;12.93;8.90;;;21.30;96.20;;;;;;4935978;29;20031;-76
2022/07/25 03:12:40;;;;;;;15.15;9.50;;;21.30;96.20;;;;;;4936292;29;20136;-76
2022/07/25 03:15:07;;;;;;;12.20;9.07;;;21.20;96.50;;;;;;4938590;29;20078;-76
2022/07/25 03:17:36;;;;;;;12.65;9.90;;;21.20;96.70;;;;;;4933281;29;20123;-76
2022/07/25 03:20:04;;;;;;;12.38;8.95;;;21.20;96.90;;;;;;4940403;28;20110;-76
2022/07/25 03:22:33;;;;;;;10.98;8.82;;;21.20;97.00;;;;;;4927841;29;20036;-76
2022/07/25 03:25:09;;;;;;;11.52;9.38;;;21.10;97.10;;;;;;4931688;29;20127;-78
2022/07/25 03:27:34;;;;;;;14.50;9.73;;;21.10;97.30;;;;;;4938807;29;20496;-78
2022/07/25 03:30:06;;;;;;;12.35;9.52;;;21.20;97.40;;;;;;4938784;28;20039;-77
2022/07/25 03:32:32;;;;;;;11.45;9.77;;;21.10;97.40;;;;;;4936248;29;20374;-77
2022/07/25 03:35:04;;;;;;;13.07;11.18;;;21.20;97.50;;;;;;4933505;29;20032;-77
2022/07/25 03:37:30;;;;;;;14.57;10.57;;;21.10;97.50;;;;;;4930112;29;20031;-77
2022/07/25 03:39:56;;;;;;;16.35;12.00;;;21.10;97.60;;;;;;4930750;29;20028;-76
2022/07/25 03:42:22;;;;;;;16.13;11.02;;;21.00;97.70;;;;;;4928657;29;20090;-77
2022/07/25 03:44:48;;;;;;;15.23;11.32;;;21.00;97.90;;;;;;4936804;29;20531;-76
2022/07/25 03:47:14;;;;;;;16.00;11.60;;;21.00;98.10;;;;;;4931902;29;20024;-77
2022/07/25 03:49:45;;;;;;;14.30;10.57;;;20.90;98.20;;;;;;4933873;29;20039;-76
2022/07/25 03:52:14;;;;;;;16.50;12.00;;;20.90;98.60;;;;;;4930728;29;20038;-76
2022/07/25 03:54:40;;;;;;;16.92;11.73;;;20.90;98.90;;;;;;4930323;29;20035;-76
2022/07/25 03:57:11;;;;;;;13.55;11.27;;;20.90;99.00;;;;;;4935274;29;20545;-76
2022/07/25 03:59:37;;;;;;;14.70;11.27;;;20.90;99.10;;;;;;4932605;29;20035;-76
2022/07/25 04:02:06;;;;;;;16.25;11.85;;;20.90;99.20;;;;;;4930939;28;20043;-76
2022/07/25 04:04:32;;;;;;;15.55;11.43;;;20.90;99.30;;;;;;4932045;29;20028;-76
2022/07/25 04:06:58;;;;;;;14.38;10.68;;;20.90;99.50;;;;;;4934311;28;20035;-77
2022/07/25 04:09:23;;;;;;;12.52;10.13;;;20.90;99.60;;;;;;4931393;29;20073;-75
2022/07/25 04:11:52;;;;;;;14.57;11.15;;;20.80;99.60;;;;;;4934650;29;20040;-77
2022/07/25 04:14:17;;;;;;;14.25;10.65;;;20.80;99.80;;;;;;4930961;29;20036;-77
2022/07/25 04:16:43;;;;;;;13.15;10.73;;;20.80;99.90;;;;;;4930666;28;20038;-77
2022/07/25 04:19:12;;;;;;;15.32;11.15;;;20.80;99.90;;;;;;4933895;29;20123;-77
2022/07/25 04:21:37;;;;;;;12.63;10.40;;;20.70;99.90;;;;;;4929184;29;20023;-76
2022/07/25 04:24:09;;;;;;;14.25;10.23;;;20.80;99.90;;;;;;4929173;29;20082;-77
2022/07/25 04:26:37;;;;;;;15.38;10.00;;;20.80;99.90;;;;;;4942875;29;20051;-77
2022/07/25 04:29:03;;;;;;;9.98;8.93;;;20.80;99.90;;;;;;4930156;29;20027;-77
2022/07/25 04:31:29;;;;;;;12.90;9.38;;;20.80;99.90;;;;;;4936957;29;20035;-77
2022/07/25 04:33:54;;;;;;;12.98;10.05;;;20.80;99.90;;;;;;4940201;28;20035;-76
2022/07/25 04:36:23;;;;;;;11.18;9.38;;;20.80;99.90;;;;;;4935812;29;20098;-77
2022/07/25 04:38:52;;;;;;;13.50;9.23;;;20.90;99.90;;;;;;4935764;29;20039;-76
2022/07/25 04:41:18;;;;;;;12.88;9.45;;;20.90;99.90;;;;;;4935837;29;20358;-77
2022/07/25 04:43:43;;;;;;;12.02;10.05;;;21.00;99.90;;;;;;4933819;29;20023;-76
2022/07/25 04:46:16;;;;;;;12.23;9.77;;;21.00;99.90;;;;;;4939193;29;20024;-77
2022/07/25 04:48:45;;;;;;;11.60;9.53;;;21.10;99.90;;;;;;4935708;29;20964;-77
2022/07/25 04:51:10;;;;;;;11.30;9.63;;;21.10;99.90;;;;;;4937449;29;20068;-77
2022/07/25 04:53:39;;;;;;;13.20;10.13;;;21.20;99.90;;;;;;4932134;29;20027;-77
2022/07/25 04:56:05;;;;;;;11.05;9.20;;;21.30;99.90;;;;;;4935373;29;20111;-76
2022/07/25 04:58:31;;;;;;;13.65;9.73;;;21.30;99.70;;;;;;4928470;29;20035;-78
2022/07/25 05:01:03;;;;;;;10.82;9.38;;;21.40;99.50;;;;;;4933690;28;20024;-78
2022/07/25 05:03:28;;;;;;;13.80;10.10;;;21.50;99.30;;;;;;4934958;29;20031;-77
2022/07/25 05:05:54;;;;;;;14.48;10.63;;;21.60;99.10;;;;;;4931836;29;20034;-77
2022/07/25 05:08:22;;;;;;;12.32;9.88;;;21.70;98.80;;;;;;4931526;29;20024;-73
2022/07/25 05:10:48;;;;;;;11.57;10.30;;;21.80;98.60;;;;;;4929274;29;20031;-72
2022/07/25 05:13:14;;;;;;;13.93;10.73;;;22.00;98.40;;;;;;4934173;29;20066;-73
2022/07/25 05:15:39;;;;;;;15.45;9.65;;;22.10;98.20;;;;;;4950540;28;20034;-72
2022/07/25 05:18:11;;;;;;;12.73;10.60;;;22.20;97.90;;;;;;4935251;29;20079;-72
2022/07/25 05:20:52;;;;;;;13.40;10.23;;;22.30;97.50;;;;;;4931444;29;20058;-72
2022/07/25 05:23:17;;;;;;;12.80;10.50;;;22.40;97.30;;;;;;4938870;29;20031;-73
2022/07/25 05:25:43;;;;;;;13.23;10.20;;;22.50;97.20;;;;;;4940509;29;20421;-72
2022/07/25 05:28:09;;;;;;;15.93;11.82;;;22.70;97.00;;;;;;4941742;29;20027;-72
2022/07/25 05:30:38;;;;;;;12.82;10.55;;;22.80;96.70;;;;;;4938746;29;20032;-72
2022/07/25 05:33:09;;;;;;;12.57;9.90;;;22.90;96.40;;;;;;4938328;29;20030;-72
2022/07/25 05:35:35;;;;;;;14.38;10.43;;;23.00;96.20;;;;;;4939526;29;20027;-73
2022/07/25 05:38:02;;;;;;;13.65;10.43;;;23.10;96.00;;;;;;4936416;29;20015;-77
2022/07/25 05:40:30;;;;;;;12.20;10.25;;;23.20;95.80;;;;;;4931749;29;20040;-76
2022/07/25 05:42:56;;;;;;;13.18;10.15;;;23.40;95.60;;;;;;4938327;29;20502;-77
2022/07/25 05:45:25;;;;;;;15.13;10.45;;;23.50;95.20;;;;;;4937488;29;20024;-77
2022/07/25 05:47:56;;;;;;;11.48;10.10;;;23.60;94.90;;;;;;4943722;29;20030;-77
2022/07/25 05:50:31;;;;;;;12.32;10.40;;;23.70;94.60;;;;;;4932218;29;20417;-76
2022/07/25 05:53:12;;;;;;;13.50;11.13;;;23.90;94.30;;;;;;4940457;29;20027;-77
2022/07/25 05:55:40;;;;;;;13.57;10.90;;;24.00;94.10;;;;;;4937669;29;20066;-78
2022/07/25 05:58:06;;;;;;;14.77;11.20;;;24.10;93.90;;;;;;4933790;28;20023;-76
2022/07/25 06:00:34;;;;;;;12.38;10.45;;;24.10;93.60;;;;;;4941595;29;20027;-70
2022/07/25 06:03:00;;;;;;;14.48;10.65;;;24.10;93.40;;;;;;4933341;28;20024;-75
2022/07/25 06:05:26;;;;;;;15.20;10.40;;;24.10;93.30;;;;;;4940328;29;20625;-75
2022/07/25 06:07:52;;;;;;;13.90;10.95;;;24.30;93.30;;;;;;4928326;29;20107;-76
2022/07/25 06:10:21;;;;;;;15.07;11.20;;;24.40;93.20;;;;;;4932538;29;20027;-76
2022/07/25 06:12:49;;;;;;;13.77;10.65;;;24.50;93.00;;;;;;4933640;29;20060;-76
2022/07/25 06:15:18;;;;;;;16.50;11.15;;;24.60;92.80;;;;;;4940567;29;20030;-79
2022/07/25 06:17:44;;;;;;;14.15;11.13;;;24.70;92.50;;;;;;4937107;29;20031;-77
2022/07/25 06:20:11;;;;;;;16.95;11.48;;;24.70;92.30;;;;;;4938232;29;20065;-77
2022/07/25 06:22:42;;;;;;;17.45;11.13;;;24.80;92.10;;;;;;4941725;28;20035;-77
2022/07/25 06:25:08;;;;;;;13.70;10.70;;;24.90;92.00;;;;;;4933812;29;20074;-77
2022/07/25 06:27:35;;;;;;;13.93;10.52;;;24.90;92.00;;;;;;4932281;29;20072;-77
2022/07/25 06:30:13;;;;;;;16.42;10.55;;;24.90;91.90;;;;;;4936100;29;20031;-77
2022/07/25 06:32:39;;;;;;;13.95;9.88;;;25.10;92.10;;;;;;4945753;29;20059;-77
2022/07/25 06:35:09;;;;;;;13.20;10.45;;;25.20;91.70;;;;;;4940352;29;20112;-77
2022/07/25 06:37:38;;;;;;;14.10;10.30;;;25.30;91.40;;;;;;4929005;29;20040;-76
2022/07/25 06:40:04;;;;;;;14.48;10.73;;;25.40;91.20;;;;;;4933602;29;20060;-77
2022/07/25 06:42:40;;;;;;;14.98;10.80;;;25.40;91.00;;;;;;4932061;29;20023;-77
2022/07/25 06:45:11;;;;;;;12.77;9.95;;;25.50;91.00;;;;;;4925412;29;20031;-77
2022/07/25 06:47:38;;;;;;;15.68;10.27;;;25.60;91.00;;;;;;4939185;29;20342;-76
2022/07/25 06:50:05;;;;;;;15.85;11.23;;;25.70;90.80;;;;;;4935622;29;20040;-76
2022/07/25 06:52:38;;;;;;;14.88;11.43;;;25.80;90.60;;;;;;4937158;29;20039;-77
2022/07/25 06:55:08;;;;;;;14.95;10.95;;;25.80;90.50;;;;;;4934641;29;20075;-76
2022/07/25 06:57:34;;;;;;;12.77;10.98;;;25.80;90.40;;;;;;4931733;29;20035;-77
2022/07/25 07:00:00;;;;;;;14.55;10.80;;;25.80;90.40;;;;;;4925745;29;20406;-77
2022/07/25 07:02:31;;;;;;;14.65;11.75;;;25.90;90.40;;;;;;4935395;29;20042;-77
2022/07/25 07:05:00;;;;;;;17.83;11.77;;;26.00;90.50;;;;;;4952423;28;20023;-76
2022/07/25 07:07:26;;;;;;;17.65;12.20;;;26.00;90.50;;;;;;4936918;29;20023;-76
2022/07/25 07:09:52;;;;;;;17.17;12.30;;;26.00;90.50;;;;;;4941685;28;20469;-77
2022/07/25 07:12:18;;;;;;;17.60;11.55;;;26.00;90.50;;;;;;4927373;28;20019;-77
2022/07/25 07:14:44;;;;;;;14.55;11.48;;;26.00;90.50;;;;;;4944970;28;20503;-76
2022/07/25 07:17:12;;;;;;;18.45;12.30;;;26.00;90.50;;;;;;4936798;29;20442;-77
2022/07/25 07:19:43;;;;;;;15.93;12.23;;;26.00;90.60;;;;;;4940359;29;20032;-77
2022/07/25 07:22:08;;;;;;;17.08;12.52;;;26.00;90.60;;;;;;4932050;29;20056;-76
2022/07/25 07:24:37;;;;;;;18.80;11.57;;;25.90;90.70;;;;;;4939180;29;20036;-76
2022/07/25 07:27:15;;;;;;;15.38;11.80;;;26.00;90.70;;;;;;4930288;29;20381;-77
2022/07/25 07:29:40;;;;;;;14.63;10.80;;;26.00;90.80;;;;;;4933001;29;20032;-76
2022/07/25 07:32:06;;;;;;;12.73;10.20;;;26.00;90.80;;;;;;4935217;29;20379;-77
2022/07/25 07:34:32;;;;;;;15.43;11.02;;;26.00;90.80;;;;;;4931617;29;20494;-76
2022/07/25 07:36:58;;;;;;;15.02;10.13;;;26.10;90.80;;;;;;4936502;29;20373;-76
2022/07/25 07:39:24;;;;;;;17.95;11.98;;;26.20;90.90;;;;;;4933728;29;20028;-76
2022/07/25 07:41:49;;;;;;;13.25;10.80;;;26.20;90.90;;;;;;4940065;28;20023;-76
2022/07/25 07:44:21;;;;;;;14.95;10.40;;;26.20;90.90;;;;;;4935209;29;20083;-77
2022/07/25 07:46:53;;;;;;;14.93;10.20;;;26.20;90.80;;;;;;4925629;29;20130;-77
2022/07/25 07:49:18;;;;;;;12.15;10.43;;;26.30;90.90;;;;;;4932632;29;20035;-77
2022/07/25 07:51:44;;;;;;;13.38;10.90;;;26.30;91.00;;;;;;4927508;29;20533;-76
2022/07/25 07:57:03;;;;;;;14.07;10.73;;;26.50;90.80;;;;;;4930969;29;20026;-77
2022/07/25 07:59:34;;;;;;;13.00;9.88;;;26.60;90.70;;;;;;4930767;29;20035;-76
2022/07/25 08:02:02;;;;;;;11.68;10.25;;;26.60;90.60;;;;;;4944158;28;20031;-77
2022/07/25 08:04:28;;;;;;;14.82;11.05;;;26.70;90.60;;;;;;4934464;29;20035;-76
2022/07/25 08:07:00;;;;;;;11.10;9.95;;;26.70;90.60;;;;;;4937554;29;20102;-77
2022/07/25 08:09:25;;;;;;;14.07;10.45;;;26.80;90.50;;;;;;4940972;29;20028;-77
2022/07/25 08:11:57;;;;;;;15.50;10.80;;;27.00;90.40;;;;;;4934079;28;20429;-77
2022/07/25 08:14:23;;;;;;;16.17;9.15;;;27.10;90.40;;;;;;4933197;29;20023;-76
2022/07/25 08:16:51;;;;;;;14.30;9.90;;;27.20;90.10;;;;;;4937773;29;20034;-77
2022/07/25 08:19:20;;;;;;;13.95;10.57;;;27.20;90.00;;;;;;4931440;29;20475;-77
2022/07/25 08:24:27;;;;;;;12.30;9.93;;;27.40;89.60;;;;;;4978914;28;20035;-78
2022/07/25 08:26:53;;;;;;;11.23;9.98;;;27.60;89.40;;;;;;4972009;28;20585;-78
2022/07/25 08:29:21;;;;;;;12.05;9.73;;;27.70;89.00;;;;;;4980733;28;20027;-78
2022/07/25 08:31:50;;;;;;;11.85;10.48;;;27.80;88.10;;;;;;4980729;28;20111;-78
2022/07/25 08:34:16;;;;;;;12.20;9.48;;;27.80;87.70;;;;;;4956558;28;20076;-78
2022/07/25 08:36:41;;;;;;;12.82;9.57;;;27.90;87.30;;;;;;4954516;29;20104;-79
2022/07/25 08:39:10;;;;;;;15.02;9.40;;;28.00;87.20;;;;;;4950249;28;20067;-78
2022/07/25 08:41:39;;;;;;;12.80;9.70;;;28.10;86.80;;;;;;4958513;29;20054;-78
2022/07/25 08:44:09;;;;;;;9.95;8.77;;;28.20;85.80;;;;;;4971986;28;20071;-79
2022/07/25 08:46:41;;;;;;;12.75;9.23;;;28.30;85.90;;;;;;4971291;28;20036;-79
2022/07/25 08:49:07;;;;;;;12.33;8.67;;;28.40;84.30;;;;;;4959006;29;20102;-78
2022/07/25 08:51:33;;;;;;;11.45;8.52;;;28.60;83.60;;;;;;4973412;28;20035;-78
2022/07/25 08:54:03;;;;;;;10.15;8.30;;;28.70;82.80;;;;;;4955101;28;20019;-78
2022/07/25 08:56:28;;;;;;;10.18;8.25;;;28.90;82.30;;;;;;4958184;28;20038;-79
2022/07/25 08:58:57;;;;;;;10.73;8.65;;;29.00;80.50;;;;;;4957296;28;20093;-78
2022/07/25 09:01:23;;;;;;;10.00;8.68;;;29.20;80.40;;;;;;4958459;29;20019;-78
2022/07/25 09:03:49;;;;;;;9.88;8.15;;;29.30;79.60;;;;;;4960681;28;20020;-78
2022/07/25 09:06:16;;;;;;;9.07;7.63;;;29.40;78.40;;;;;;4974483;28;20024;-78
2022/07/25 09:09:07;;;;;;;8.68;7.78;;;29.60;76.00;;;;;;4958377;28;20572;-78
2022/07/25 09:11:35;;;;;;;9.13;7.18;;;29.80;75.30;;;;;;4969704;28;20027;-78
2022/07/25 09:14:07;;;;;;;8.38;7.25;;;29.90;74.40;;;;;;4956011;28;20039;-78
2022/07/25 09:16:35;;;;;;;8.63;6.90;;;30.00;72.70;;;;;;4974668;28;20027;-78
2022/07/25 09:19:22;;;;;;;8.73;7.25;;;30.10;72.10;;;;;;4958061;29;20082;-78
2022/07/25 09:22:05;;;;;;;9.35;7.35;;;30.20;71.30;;;;;;4959198;28;20042;-78
2022/07/25 09:24:31;;;;;;;7.53;6.38;;;30.30;71.10;;;;;;4958111;28;20055;-78
2022/07/25 09:27:00;;;;;;;7.82;7.03;;;30.40;70.60;;;;;;4957394;28;20059;-78
2022/07/25 09:29:31;;;;;;;7.22;6.05;;;30.50;69.10;;;;;;4955268;28;20050;-78
2022/07/25 09:31:59;;;;;;;7.68;6.25;;;30.60;68.60;;;;;;4960553;28;20026;-78
2022/07/25 09:34:36;;;;;;;6.82;6.15;;;30.60;68.30;;;;;;4973450;28;20550;-78
2022/07/25 09:37:06;;;;;;;8.55;6.13;;;30.70;66.70;;;;;;4958915;29;20054;-78
2022/07/25 09:39:52;;;;;;;9.00;7.15;;;30.80;66.30;;;;;;4949175;28;20445;-78
2022/07/25 09:42:23;;;;;;;7.30;6.55;;;30.80;65.70;;;;;;4958087;28;20059;-78
2022/07/25 09:45:16;;;;;;;8.10;6.47;;;30.90;65.40;;;;;;4956287;28;20090;-78
2022/07/25 09:47:53;;;;;;;6.78;6.07;;;31.00;65.00;;;;;;4957263;29;20030;-78
2022/07/25 09:50:21;;;;;;;6.50;5.90;;;31.10;64.50;;;;;;4955569;29;20046;-77
2022/07/25 09:52:54;;;;;;;6.93;5.82;;;31.10;63.90;;;;;;4952561;29;20035;-78
2022/07/25 09:55:20;;;;;;;6.90;6.10;;;31.20;63.20;;;;;;4957870;29;20514;-78
2022/07/25 09:57:51;;;;;;;7.90;4.78;;;31.30;62.60;;;;;;4951793;29;20027;-78
2022/07/25 10:00:28;;;;;;;6.75;5.90;;;31.30;61.70;;;;;;4957501;28;20059;-79
2022/07/25 10:02:53;;;;;;;8.15;5.75;;;31.40;61.60;;;;;;4962717;28;20493;-78
2022/07/25 10:05:59;;;;;;;9.13;5.82;;;31.60;61.40;;;;;;4955790;28;20031;-78
2022/07/25 10:08:28;;;;;;;7.13;5.63;;;31.60;60.70;;;;;;4960302;29;20054;-78
2022/07/25 10:10:57;;;;;;;6.47;5.88;;;31.70;60.50;;;;;;4960025;28;20472;-78
2022/07/25 10:13:37;;;;;;;6.10;5.50;;;31.80;60.40;;;;;;4957527;29;20019;-78
2022/07/25 10:16:15;;;;;;;8.15;5.70;;;31.80;60.70;;;;;;4953144;28;20038;-78
2022/07/25 10:18:48;;;;;;;6.43;5.60;;;31.80;60.40;;;;;;4951616;28;20027;-78
2022/07/25 10:21:14;;;;;;;6.53;5.93;;;31.80;60.00;;;;;;4959216;29;20034;-77
2022/07/25 10:23:39;;;;;;;6.15;5.00;;;31.80;59.70;;;;;;4970648;28;20481;-78
2022/07/25 10:26:18;;;;;;;5.25;4.75;;;31.80;59.30;;;;;;4954976;28;20043;-78
2022/07/25 10:28:54;;;;;;;6.70;5.82;;;31.80;58.60;;;;;;4969214;28;20020;-78
2022/07/25 10:31:35;;;;;;;5.90;4.57;;;32.00;57.80;;;;;;4956801;28;20051;-78
2022/07/25 10:34:07;;;;;;;5.50;4.85;;;32.00;57.00;;;;;;4954119;29;20066;-78
2022/07/25 10:36:41;;;;;;;5.82;5.22;;;32.10;57.20;;;;;;4958318;28;20027;-78
2022/07/25 10:39:12;;;;;;;5.47;4.50;;;32.20;56.70;;;;;;4952192;28;20039;-79
2022/07/25 10:41:54;;;;;;;5.32;4.82;;;32.30;56.40;;;;;;4957205;28;20019;-78
2022/07/25 10:44:36;;;;;;;5.20;4.63;;;32.40;55.10;;;;;;4955781;28;20028;-79
2022/07/25 10:47:07;;;;;;;6.10;4.95;;;32.40;55.10;;;;;;4954908;28;20028;-78
2022/07/25 10:49:39;;;;;;;9.90;5.65;;;32.50;55.40;;;;;;4957988;28;20027;-78
2022/07/25 10:52:05;;;;;;;5.45;4.75;;;32.50;55.30;;;;;;4968620;28;20050;-78
2022/07/25 10:54:37;;;;;;;6.45;4.65;;;32.60;55.00;;;;;;4951395;28;20396;-78
2022/07/25 10:57:05;;;;;;;6.10;4.70;;;32.60;54.80;;;;;;4953221;28;20023;-78
2022/07/25 10:59:36;;;;;;;7.28;4.72;;;32.70;54.90;;;;;;4955024;28;20032;-78
2022/07/25 11:02:04;;;;;;;5.10;4.60;;;32.70;54.80;;;;;;4951336;29;20016;-78
2022/07/25 11:05:00;;;;;;;5.70;4.90;;;32.70;54.30;;;;;;4968845;28;20531;-78
2022/07/25 11:07:27;;;;;;;8.13;4.82;;;32.70;54.10;;;;;;4957957;28;20081;-78
2022/07/25 11:09:58;;;;;;;6.13;4.88;;;32.70;54.60;;;;;;4969186;28;20027;-78
2022/07/25 11:12:24;;;;;;;6.00;5.40;;;32.70;55.10;;;;;;4969919;28;20062;-78
2022/07/25 11:15:05;;;;;;;5.63;5.13;;;32.80;54.00;;;;;;4955628;29;20251;-78
2022/07/25 11:17:37;;;;;;;5.95;5.07;;;32.80;53.90;;;;;;4953131;29;20455;-78
2022/07/25 11:20:08;;;;;;;6.00;5.40;;;32.80;55.20;;;;;;4965614;28;20020;-78
2022/07/25 11:22:39;;;;;;;5.78;4.90;;;32.80;54.60;;;;;;4955676;29;20024;-78
2022/07/25 11:25:13;;;;;;;6.57;5.05;;;32.90;54.70;;;;;;4954178;28;20032;-78
2022/07/25 11:27:39;;;;;;;7.50;5.30;;;33.00;53.80;;;;;;4956814;29;20023;-78
2022/07/25 11:30:08;;;;;;;5.93;4.57;;;33.00;53.70;;;;;;4951345;28;20055;-78
2022/07/25 11:32:39;;;;;;;5.60;5.05;;;33.10;53.00;;;;;;4952296;28;20497;-79
2022/07/25 11:35:05;;;;;;;4.68;4.28;;;33.20;52.80;;;;;;4953066;28;20024;-78
2022/07/25 11:37:36;;;;;;;5.72;5.20;;;33.20;52.80;;;;;;4956506;29;20465;-78
2022/07/25 11:40:02;;;;;;;4.93;4.40;;;33.30;52.40;;;;;;4957845;28;20055;-78
2022/07/25 11:42:59;;;;;;;5.15;4.60;;;33.40;51.40;;;;;;4955027;29;20693;-78
2022/07/25 11:45:35;;;;;;;7.82;4.90;;;33.50;51.00;;;;;;4972157;28;20023;-78
2022/07/25 11:48:21;;;;;;;5.07;4.50;;;33.50;51.30;;;;;;4955374;28;20050;-78
2022/07/25 11:50:50;;;;;;;4.93;4.05;;;33.60;50.50;;;;;;4951640;28;20028;-78
2022/07/25 11:53:18;;;;;;;5.30;4.80;;;33.60;50.20;;;;;;4956123;28;20030;-78
2022/07/25 11:55:51;;;;;;;6.65;4.32;;;33.60;50.30;;;;;;4968846;28;20027;-78
2022/07/25 11:58:17;;;;;;;6.97;4.97;;;33.70;50.30;;;;;;4952316;28;20039;-80
2022/07/25 12:00:45;;;;;;;5.97;5.18;;;33.70;50.30;;;;;;4954573;29;20027;-78
2022/07/25 12:03:21;;;;;;;6.38;5.35;;;33.70;50.60;;;;;;4952351;28;20090;-78
2022/07/25 12:05:49;;;;;;;8.63;5.30;;;33.70;51.00;;;;;;4953933;28;20027;-78
2022/07/25 12:08:24;;;;;;;7.13;4.90;;;33.70;50.60;;;;;;4969023;28;20475;-78
2022/07/25 12:10:50;;;;;;;6.47;4.65;;;33.70;50.30;;;;;;4953853;29;20074;-78
2022/07/25 12:13:32;;;;;;;9.20;4.95;;;33.70;50.30;;;;;;4956511;28;20024;-78
2022/07/25 12:16:00;;;;;;;5.57;4.78;;;33.70;50.10;;;;;;4950936;28;20098;-78
2022/07/25 12:18:26;;;;;;;6.18;4.90;;;33.70;50.20;;;;;;4951193;29;20054;-78
2022/07/25 12:20:54;;;;;;;5.38;4.88;;;33.80;50.00;;;;;;4955307;28;20020;-78
2022/07/25 12:23:23;;;;;;;7.60;4.85;;;33.80;49.90;;;;;;4955043;28;20028;-78
2022/07/25 12:25:49;;;;;;;5.38;4.88;;;33.90;49.90;;;;;;4955821;28;20027;-78
2022/07/25 12:28:18;;;;;;;6.35;4.97;;;33.90;49.90;;;;;;4954150;29;20027;-78
2022/07/25 12:30:44;;;;;;;5.57;5.07;;;33.90;49.90;;;;;;4952439;29;20070;-78
2022/07/25 12:33:19;;;;;;;7.05;4.70;;;33.80;50.50;;;;;;4957934;28;20078;-78
2022/07/25 12:35:45;;;;;;;5.63;4.82;;;33.80;49.80;;;;;;4952313;29;20117;-78
2022/07/25 12:38:11;;;;;;;8.82;4.55;;;33.90;49.60;;;;;;4955738;28;20058;-78
2022/07/25 12:40:45;;;;;;;6.03;4.78;;;33.80;49.60;;;;;;4953948;28;20046;-78
2022/07/25 12:43:11;;;;;;;7.45;4.25;;;33.90;49.60;;;;;;4955350;28;20062;-79
2022/07/25 12:45:39;;;;;;;7.88;4.32;;;33.90;48.80;;;;;;4948759;29;20027;-78
2022/07/25 12:48:09;;;;;;;4.68;4.20;;;33.90;48.90;;;;;;4952990;28;20043;-78
2022/07/25 12:50:42;;;;;;;4.53;4.13;;;34.00;48.70;;;;;;4953549;29;20143;-78
2022/07/25 12:53:08;;;;;;;5.57;3.97;;;34.10;48.60;;;;;;4956748;28;20527;-77
2022/07/25 12:55:34;;;;;;;4.75;3.90;;;34.20;48.70;;;;;;4955954;28;20019;-78
2022/07/25 12:58:06;;;;;;;4.60;4.10;;;34.20;48.30;;;;;;4956144;28;20047;-78